createdAt,value
2023-02-27T00:01:35.058Z,-1.40
2023-02-27T00:06:36.771Z,-1.47
2023-02-27T00:11:38.646Z,-1.57
2023-02-27T00:16:43.955Z,-1.71
2023-02-27T00:21:45.720Z,-1.81
2023-02-27T00:26:47.342Z,-1.87
2023-02-27T00:31:50.740Z,-1.94
2023-02-27T00:36:52.954Z,-2.03
2023-02-27T00:41:54.675Z,-2.09
2023-02-27T00:46:56.345Z,-2.03
2023-02-27T00:51:58.043Z,-1.89
2023-02-27T00:56:59.735Z,-1.76
2023-02-27T01:02:01.454Z,-1.67
2023-02-27T01:07:03.654Z,-1.56
2023-02-27T01:12:05.848Z,-1.47
2023-02-27T01:17:07.482Z,-1.41
2023-02-27T01:22:09.159Z,-1.38
2023-02-27T01:27:10.909Z,-1.34
2023-02-27T01:32:12.676Z,-1.27
2023-02-27T01:37:14.411Z,-1.22
2023-02-27T01:42:27.354Z,-1.20
2023-02-27T01:47:28.976Z,-1.21
2023-02-27T01:52:32.548Z,-1.23
2023-02-27T01:57:36.005Z,-1.22
2023-02-27T02:02:40.819Z,-1.18
2023-02-27T02:07:43.795Z,-1.14
2023-02-27T02:12:47.019Z,-1.18
2023-02-27T02:18:16.308Z,-1.20
2023-02-27T02:23:46.153Z,-1.18
2023-02-27T02:29:12.060Z,-1.13
2023-02-27T02:34:53.195Z,-1.09
2023-02-27T02:40:27.289Z,-1.10
2023-02-27T02:45:53.404Z,-1.15
2023-02-27T02:51:12.090Z,-1.19
2023-02-27T02:56:24.345Z,-1.16
2023-02-27T03:01:49.239Z,-1.10
2023-02-27T03:06:58.456Z,-1.08
2023-02-27T03:12:05.396Z,-1.10
2023-02-27T03:17:15.869Z,-1.16
2023-02-27T03:22:23.577Z,-1.15
2023-02-27T03:27:30.273Z,-1.12
2023-02-27T03:32:45.934Z,-1.13
2023-02-27T03:38:06.631Z,-1.14
2023-02-27T03:43:26.273Z,-1.20
2023-02-27T03:48:30.201Z,-1.23
2023-02-27T03:53:41.587Z,-1.21
2023-02-27T03:58:43.681Z,-1.18
2023-02-27T04:03:52.759Z,-1.19
2023-02-27T04:09:21.644Z,-1.23
2023-02-27T04:14:52.257Z,-1.27
2023-02-27T04:20:26.222Z,-1.25
2023-02-27T04:26:17.973Z,-1.23
2023-02-27T04:31:35.137Z,-1.26
2023-02-27T04:36:57.105Z,-1.30
2023-02-27T04:42:06.662Z,-1.30
2023-02-27T04:47:11.459Z,-1.28
2023-02-27T04:52:18.286Z,-1.26
2023-02-27T04:57:28.150Z,-1.27
2023-02-27T05:02:36.792Z,-1.30
2023-02-27T05:07:47.950Z,-1.30
2023-02-27T05:13:14.216Z,-1.27
2023-02-27T05:18:19.124Z,-1.26
2023-02-27T05:23:32.770Z,-1.30
2023-02-27T05:28:46.101Z,-1.34
2023-02-27T05:33:56.747Z,-1.34
2023-02-27T05:39:04.218Z,-1.32
2023-02-27T05:44:18.168Z,-1.30
2023-02-27T05:49:41.784Z,-1.33
2023-02-27T05:54:58.604Z,-1.33
2023-02-27T06:00:05.183Z,-1.29
2023-02-27T06:05:15.396Z,-1.23
2023-02-27T06:10:19.576Z,-1.20
2023-02-27T06:15:21.277Z,-1.19
2023-02-27T06:20:23.295Z,-1.16
2023-02-27T06:25:25.080Z,-1.06
2023-02-27T06:30:27.202Z,-0.96
2023-02-27T06:35:29.619Z,-0.89
2023-02-27T06:40:31.289Z,-0.86
2023-02-27T06:45:32.949Z,-0.99
2023-02-27T06:50:35.275Z,-0.77
2023-02-27T06:55:37.197Z,-0.65
2023-02-27T07:00:38.905Z,-0.54
2023-02-27T07:05:41.967Z,-0.39
2023-02-27T07:10:46.949Z,-0.24
2023-02-27T07:15:50.467Z,-0.09
2023-02-27T07:20:52.276Z,0.11
2023-02-27T07:25:53.948Z,0.31
2023-02-27T07:30:56.304Z,0.47
2023-02-27T07:35:58.202Z,0.56
2023-02-27T07:40:59.967Z,0.66
2023-02-27T07:46:04.089Z,0.72
2023-02-27T07:51:06.622Z,0.80
2023-02-27T07:56:08.810Z,0.91
2023-02-27T08:01:10.465Z,0.94
2023-02-27T08:06:12.239Z,1.06
2023-02-27T08:11:13.862Z,1.24
2023-02-27T08:16:15.586Z,1.41
2023-02-27T08:21:17.310Z,1.54
2023-02-27T08:26:18.998Z,1.61
2023-02-27T08:31:20.728Z,1.64
2023-02-27T08:36:22.490Z,1.64
2023-02-27T08:41:24.137Z,1.61
2023-02-27T08:46:26.442Z,1.59
2023-02-27T08:51:29.039Z,1.52
2023-02-27T08:56:33.811Z,1.41
2023-02-27T09:01:35.568Z,1.34
2023-02-27T09:06:37.677Z,1.42
2023-02-27T09:11:39.732Z,1.56
2023-02-27T09:16:41.503Z,1.61
2023-02-27T09:21:43.215Z,1.60
2023-02-27T09:26:46.449Z,1.61
2023-02-27T09:31:48.513Z,1.85
2023-02-27T09:36:50.625Z,2.12
2023-02-27T09:42:04.128Z,2.36
2023-02-27T09:47:10.986Z,2.52
2023-02-27T09:52:14.606Z,2.61
2023-02-27T09:57:40.622Z,2.56
2023-02-27T10:03:06.146Z,2.60
2023-02-27T10:08:19.630Z,2.83
2023-02-27T10:13:27.299Z,2.98
2023-02-27T10:18:33.389Z,2.99
2023-02-27T10:24:15.465Z,2.96
2023-02-27T10:29:36.574Z,2.71
2023-02-27T10:34:41.304Z,2.54
2023-02-27T10:39:47.820Z,2.51
2023-02-27T10:44:54.492Z,2.40
2023-02-27T10:49:56.396Z,2.38
2023-02-27T10:55:18.484Z,2.30
2023-02-27T11:00:53.596Z,2.52
2023-02-27T11:06:04.586Z,2.29
2023-02-27T11:11:11.834Z,1.95
2023-02-27T11:16:20.878Z,1.71
2023-02-27T11:21:22.948Z,1.86
2023-02-27T11:26:34.797Z,2.15
2023-02-27T11:31:38.216Z,2.42
2023-02-27T11:36:41.772Z,2.43
2023-02-27T11:41:44.996Z,2.33
2023-02-27T11:46:48.870Z,2.22
2023-02-27T11:52:42.530Z,2.02
2023-02-27T11:57:47.191Z,2.00
2023-02-27T12:03:26.667Z,2.05
2023-02-27T12:08:50.519Z,2.10
2023-02-27T12:14:19.621Z,2.04
2023-02-27T12:19:38.355Z,1.95
2023-02-27T12:25:07.206Z,1.63
2023-02-27T12:30:21.473Z,1.77
2023-02-27T12:35:33.103Z,1.91
2023-02-27T12:40:46.852Z,2.25
2023-02-27T12:46:00.537Z,2.53
2023-02-27T12:51:27.806Z,2.13
2023-02-27T12:56:42.584Z,1.45
2023-02-27T13:01:59.789Z,1.13
2023-02-27T13:07:20.148Z,1.15
2023-02-27T13:12:54.231Z,1.26
2023-02-27T13:18:09.259Z,1.44
2023-02-27T13:23:18.090Z,1.62
2023-02-27T13:28:25.429Z,1.72
2023-02-27T13:33:54.566Z,1.88
2023-02-27T13:38:57.532Z,2.04
2023-02-27T13:44:20.215Z,2.26
2023-02-27T13:49:29.736Z,2.53
2023-02-27T13:54:36.370Z,2.64
2023-02-27T13:59:40.783Z,2.41
2023-02-27T14:04:51.608Z,1.89
2023-02-27T14:10:20.270Z,1.30
2023-02-27T14:15:21.953Z,1.21
2023-02-27T14:20:27.464Z,1.18
2023-02-27T14:25:44.338Z,1.25
2023-02-27T14:30:55.594Z,1.36
2023-02-27T14:36:04.899Z,1.47
2023-02-27T14:41:28.086Z,1.60
2023-02-27T14:46:38.982Z,1.68
2023-02-27T14:51:40.709Z,1.66
2023-02-27T14:57:06.454Z,1.55
2023-02-27T15:02:35.684Z,1.36
2023-02-27T15:07:39.871Z,1.24
2023-02-27T15:12:41.731Z,0.98
2023-02-27T15:17:48.226Z,0.80
2023-02-27T15:22:50.033Z,0.76
2023-02-27T15:27:51.807Z,0.74
2023-02-27T15:32:55.798Z,0.69
2023-02-27T15:37:59.493Z,0.61
2023-02-27T15:43:01.674Z,0.53
2023-02-27T15:48:04.030Z,0.48
2023-02-27T15:53:08.380Z,0.45
2023-02-27T15:58:31.056Z,0.40
2023-02-27T16:03:37.987Z,0.33
2023-02-27T16:08:46.369Z,0.23
2023-02-27T16:13:48.720Z,0.12
2023-02-27T16:18:59.328Z,-0.03
2023-02-27T16:24:21.780Z,-0.19
2023-02-27T16:29:35.768Z,-0.37
2023-02-27T16:34:45.370Z,-0.52
2023-02-27T16:39:51.008Z,-0.58
2023-02-27T16:44:52.721Z,-0.56
2023-02-27T16:49:54.360Z,-0.54
2023-02-27T16:54:56.325Z,-0.55
2023-02-27T16:59:58.779Z,-0.60
2023-02-27T17:05:00.828Z,-0.66
2023-02-27T17:10:03.211Z,-0.74
2023-02-27T17:15:05.285Z,-0.83
2023-02-27T17:20:07.775Z,-0.89
2023-02-27T17:25:10.076Z,-0.88
2023-02-27T17:30:13.710Z,-0.82
2023-02-27T17:35:15.453Z,-0.74
2023-02-27T17:40:17.783Z,-0.69
2023-02-27T17:45:21.082Z,-0.66
2023-02-27T17:50:22.714Z,-0.66
2023-02-27T17:55:24.644Z,-0.69
2023-02-27T18:00:26.440Z,-0.79
2023-02-27T18:05:29.541Z,-0.90
2023-02-27T18:10:31.170Z,-0.99
2023-02-27T18:15:33.528Z,-1.05
2023-02-27T18:20:35.221Z,-1.05
2023-02-27T18:25:37.724Z,-1.10
2023-02-27T18:30:39.469Z,-1.13
2023-02-27T18:35:41.519Z,-1.15
2023-02-27T18:40:43.278Z,-1.15
2023-02-27T18:45:45.565Z,-1.17
2023-02-27T18:50:48.223Z,-1.21
2023-02-27T18:55:50.040Z,-1.24
2023-02-27T19:00:51.996Z,-1.26
2023-02-27T19:05:54.716Z,-1.26
2023-02-27T19:10:57.408Z,-1.24
2023-02-27T19:16:04.648Z,-1.22
2023-02-27T19:21:06.675Z,-1.19
2023-02-27T19:26:12.031Z,-1.17
2023-02-27T19:31:16.399Z,-1.15
2023-02-27T19:36:21.051Z,-1.12
2023-02-27T19:41:23.939Z,-1.10
2023-02-27T19:46:33.723Z,-1.10
2023-02-27T19:51:35.550Z,-1.11
2023-02-27T19:56:37.239Z,-1.06
2023-02-27T20:01:39.782Z,-0.99
2023-02-27T20:06:44.301Z,-0.95
2023-02-27T20:11:48.166Z,-0.98
2023-02-27T20:16:52.882Z,-1.08
2023-02-27T20:21:56.372Z,-1.21
2023-02-27T20:26:59.374Z,-1.30
2023-02-27T20:32:01.489Z,-1.39
2023-02-27T20:37:03.381Z,-1.48
2023-02-27T20:42:05.790Z,-1.51
2023-02-27T20:47:08.976Z,-1.53
2023-02-27T20:52:10.689Z,-1.53
2023-02-27T20:57:12.300Z,-1.52
2023-02-27T21:02:14.463Z,-1.46
2023-02-27T21:07:18.704Z,-1.37
2023-02-27T21:12:20.383Z,-1.28
2023-02-27T21:17:23.588Z,-1.23
2023-02-27T21:22:25.220Z,-1.24
2023-02-27T21:27:27.062Z,-1.33
2023-02-27T21:32:28.788Z,-1.44
2023-02-27T21:37:30.478Z,-1.51
2023-02-27T21:42:32.118Z,-1.48
2023-02-27T21:47:33.830Z,-1.38
2023-02-27T21:52:35.582Z,-1.35
2023-02-27T21:57:39.562Z,-1.35
2023-02-27T22:02:42.772Z,-1.36
2023-02-27T22:07:44.548Z,-1.36
2023-02-27T22:12:47.025Z,-1.36
2023-02-27T22:17:54.698Z,-1.36
2023-02-27T22:22:57.168Z,-1.36
2023-02-27T22:27:59.809Z,-1.35
2023-02-27T22:33:01.556Z,-1.34
2023-02-27T22:38:03.240Z,-1.31
2023-02-27T22:43:06.174Z,-1.24
2023-02-27T22:48:08.584Z,-1.12
2023-02-27T22:53:12.202Z,-1.03
2023-02-27T22:58:13.816Z,-1.01
2023-02-27T23:03:17.494Z,-1.01
2023-02-27T23:08:19.108Z,-1.03
2023-02-27T23:13:21.042Z,-1.08
2023-02-27T23:18:22.802Z,-1.12
2023-02-27T23:23:24.691Z,-1.16
2023-02-27T23:28:26.710Z,-1.17
2023-02-27T23:33:29.624Z,-1.19
2023-02-27T23:38:31.345Z,-1.18
2023-02-27T23:43:33.773Z,-1.20
2023-02-27T23:48:35.862Z,-1.20
2023-02-27T23:53:40.328Z,-1.21
2023-02-27T23:58:42.444Z,-1.22
